Schedule Details


Flight Number: CTN4439
Departure: Munich (EDDM) at 10:15
Arrival: Kastela (LDSP) at 11:45
Route: ROTAX L603 LATLO DCT NIPEL DCT SABAD L862 OKLAX

Weather Information
EDDM 242120Z 06004KT CAVOK 21/15 Q1022 NOSIG
LDSP 242130Z AUTO 27005KT 220V330 CAVOK 26/15 Q1017
Schedule Frequency

Route Map